Terminal Aerodrome Forecast
Issued by NWS Sterling, VA

Home | Current Version | Previous Version | Text Only | Print | Product List | Glossary On
Versions: 1 2 3 4 5 6 7 8 9 10 11 12 13 14 15 16 17 18 19 20 21 22 23
000
FTUS41 KLWX 221400 AAA
TAFIAD
TAF AMD
KIAD 221453Z 2215/2318 06008KT P6SM BKN030 OVC060
     FM231000 08005KT P6SM OVC030
     FM231200 08006KT P6SM OVC015
     FM231400 09007KT P6SM OVC015
     FM231600 09008KT P6SM BKN025=

USA.gov is the U.S. government's official web portal to all federal, state and local government web resources and services.